NORTHAMPTON WEATHER

The latest weather and forecasts for Hardingstone

run by 1st Hardingstone Viking Scout Troop.


Thunder radar more information blitzortung!


Rain radar more information rain snow radar


Select another period ( hide this area )

Units Period Custom range Directly to
Metric English Both
Daily Weekly Monthly Yearly
use both date-selectors for a custom range
previous Day
With this date

WeatherUnderground graphs for this period ( click here )


Daily Summary for Thursday Sep 24 2020
Time Temp. ( °C ) Dew pt. ( °C ) Wind ( km/h ) from Gust ( km/h ) Pressure ( hPa ) Humid.( % ) Rainrate ( cm ) Solar ( W/m2 )
High8,3 8,3 24,0 South ( 613/1448 ) 24,0 997,5 100 0,20 79
Average6,7 6,7 14,6 South #42/99 13,6 995,8 100 0,40 37 #14/99
Low5,8 5,8 6,0   6,0 993,5 100 -  
Daily Tabular details for Thursday Sep 24 2020
Time Temp. ( °C ) Dew pt. ( °C ) Wind ( km/h ) from Gust ( km/h ) Pressure ( hPa ) Humid.( % ) Rainrate ( cm ) Solar ( W/m2 )
00:04 7,8 7,8 19,0 SW 19,0 997,1 100 - -
00:09 7,8 7,8 15,0 SW 19,0 997,1 100 - -
00:14 7,7 7,7 19,0 SW 15,0 997,1 100 - -
00:19 7,6 7,6 19,0 SW 19,0 997,0 100 - -
00:24 7,6 7,6 15,0 SW 15,0 997,0 100 - -
00:29 7,4 7,4 16,0 SW 15,0 997,1 100 - -
00:34 7,4 7,4 13,0 SW 16,0 997,1 100 - -
00:39 7,3 7,3 15,0 SW 13,0 997,1 100 0,20 -
00:44 7,2 7,2 15,0 SW 15,0 997,1 100 0,20 -
00:49 7,1 7,1 17,0 SW 15,0 997,2 100 0,20 -
00:54 7,1 7,1 13,0 SW 16,0 997,2 100 0,20 -
00:59 7,0 7,0 10,0 SW 11,0 997,4 100 0,20 -
01:04 6,9 6,9 13,0 SSW 10,0 997,4 100 0,20 -
01:09 6,8 6,8 13,0 SSW 13,0 997,5 100 0,20 -
01:14 6,8 6,8 13,0 SSW 13,0 997,5 100 0,20 -
01:19 6,7 6,7 15,0 SSW 13,0 997,5 100 0,20 -
01:24 6,6 6,6 19,0 SSW 15,0 997,4 100 0,20 -
01:29 6,6 6,6 16,0 SW 19,0 997,3 100 0,20 -
01:34 6,6 6,6 16,0 SW 8,0 997,3 100 0,20 -
01:39 6,5 6,5 13,0 SW 16,0 997,2 100 0,20 -
01:44 6,4 6,4 15,0 SW 13,0 997,2 100 0,20 -
01:49 6,4 6,4 13,0 SW 15,0 997,3 100 0,20 -
01:54 6,3 6,3 13,0 SW 13,0 997,3 100 0,20 -
01:59 6,3 6,3 13,0 SW 13,0 997,2 100 - -
02:04 6,3 6,3 18,0 SSW 13,0 997,3 100 - -
02:09 6,3 6,3 16,0 SSW 18,0 997,3 100 - -
02:14 6,2 6,2 17,0 SW 16,0 997,2 100 - -
02:19 6,2 6,2 13,0 SSW 8,0 997,2 100 - -
02:24 6,1 6,1 16,0 SW 13,0 997,1 100 - -
02:29 6,1 6,1 17,0 SW 10,0 997,1 100 - -
02:34 6,0 6,0 15,0 SSW 8,0 997,1 100 - -
02:39 5,9 5,9 13,0 SW 13,0 997,0 100 - -
02:44 5,9 5,9 13,0 SW 13,0 997,1 100 - -
02:49 5,9 5,9 13,0 SSW 13,0 997,2 100 - -
02:54 5,8 5,8 13,0 South 13,0 997,1 100 - -
02:59 5,8 5,8 15,0 SSW 10,0 997,1 100 - -
03:04 5,8 5,8 18,0 South 15,0 997,1 100 - -
03:09 5,8 5,8 19,0 South 18,0 997,2 100 - -
03:14 5,9 5,9 17,0 South 19,0 997,2 100 - -
03:19 6,0 6,0 17,0 SSW 10,0 997,1 100 - -
03:24 6,0 6,0 21,0 South 15,0 997,1 100 - -
03:29 6,1 6,1 19,0 SSW 10,0 997,1 100 - -
03:34 6,1 6,1 17,0 South 16,0 997,0 100 - -
03:39 6,2 6,2 15,0 South 16,0 996,8 100 - -
03:44 6,2 6,2 16,0 SSW 15,0 996,8 100 - -
03:49 6,2 6,2 11,0 South 16,0 996,7 100 - -
03:54 6,2 6,2 13,0 South 7,0 996,6 100 - -
03:59 6,2 6,2 13,0 South 13,0 996,6 100 - -
04:04 6,2 6,2 11,0 South 13,0 996,6 100 - -
04:09 6,1 6,1 11,0 South 11,0 996,4 100 - -
04:14 6,1 6,1 13,0 South 11,0 996,3 100 - -
04:19 6,1 6,1 11,0 South 13,0 996,3 100 - -
04:24 6,1 6,1 11,0 South 11,0 996,3 100 - -
04:29 6,1 6,1 15,0 South 11,0 996,3 100 - -
04:34 6,0 6,0 11,0 South 15,0 996,2 100 - -
04:39 6,0 6,0 15,0 South 11,0 996,0 100 - -
04:44 6,0 6,0 13,0 South 6,0 995,8 100 - -
04:49 6,0 6,0 11,0 South 13,0 995,8 100 - -
04:54 6,0 6,0 10,0 South 11,0 995,8 100 - -
04:59 6,0 6,0 13,0 South 10,0 995,7 100 - -
05:04 6,0 6,0 6,0 South 13,0 995,7 100 - -
05:09 6,0 6,0 10,0 South 6,0 995,7 100 - -
05:14 6,1 6,1 9,0 South 10,0 995,5 100 - -
05:19 6,1 6,1 10,0 SSE 10,0 995,4 100 - -
05:24 6,1 6,1 11,0 SSE 10,0 995,3 100 - -
05:29 6,2 6,2 13,0 South 11,0 995,3 100 - -
05:34 6,3 6,3 13,0 SSE 13,0 995,3 100 - -
05:39 6,4 6,4 11,0 SSE 13,0 994,9 100 - -
05:44 6,5 6,5 15,0 South 11,0 994,9 100 - -
05:49 6,5 6,5 15,0 South 15,0 994,8 100 - -
05:54 6,6 6,6 17,0 South 15,0 994,7 100 - -
05:59 6,7 6,7 15,0 SSE 7,0 994,6 100 - -
06:04 6,8 6,8 15,0 SSE 15,0 994,4 100 - -
06:09 7,0 7,0 13,0 SSE 15,0 994,3 100 - -
06:14 7,1 7,1 13,0 SSE 13,0 994,2 100 - -
06:19 7,2 7,2 13,0 South 13,0 994,1 100 - -
06:24 7,3 7,3 13,0 SSE 13,0 994,0 100 - -
06:29 7,3 7,3 15,0 SSE 10,0 994,0 100 - -
06:34 7,3 7,3 15,0 South 15,0 993,9 100 - -
06:39 7,4 7,4 16,0 SSE 15,0 993,9 100 - -
06:44 7,4 7,4 13,0 SSE 16,0 993,7 100 0,20 -
06:49 7,4 7,4 15,0 SSE 13,0 993,7 100 0,20 -
06:54 7,4 7,4 10,0 South 15,0 993,6 100 0,20 -
06:59 7,4 7,4 11,0 SSE 10,0 993,6 100 0,20 -
07:04 7,4 7,4 11,0 South 11,0 993,6 100 0,20 -
07:09 7,4 7,4 16,0 South 11,0 993,5 100 0,20 5
07:14 7,5 7,5 17,0 SSE 16,0 993,5 100 0,20 9
07:19 7,5 7,5 13,0 SSE 16,0 993,5 100 0,20 11
07:24 7,4 7,4 16,0 South 13,0 993,5 100 0,20 26
07:29 7,4 7,4 17,0 South 16,0 993,5 100 0,20 26
07:34 7,5 7,5 15,0 South 16,0 993,5 100 0,20 19
07:39 7,6 7,6 21,0 South 13,0 993,6 100 0,20 39
07:44 7,6 7,6 20,0 South 21,0 993,6 100 0,20 28
07:49 7,7 7,7 24,0 South 19,0 993,6 100 0,20 46
07:54 7,9 7,9 24,0 South 24,0 993,6 100 0,20 72
07:59 8,0 8,0 24,0 South 19,0 993,6 100 0,20 79
08:04 8,1 8,1 10,0 SSW 24,0 993,6 100 - 49
08:09 8,2 8,2 18,0 SSW 10,0 993,6 100 - 53
08:14 8,3 8,3 17,0 SSW 18,0 993,5 100 - 60
Daily Summary for Thursday Sep 24 2020
Time Temp. ( °C ) Dew pt. ( °C ) Wind ( km/h ) from Gust ( km/h ) Pressure ( hPa ) Humid.( % ) Rainrate ( cm ) Solar ( W/m2 )
High8,3 8,3 24,0 South ( 613/1448 ) 24,0 997,5 100 0,20 79
Average6,7 6,7 14,6 South #42/99 13,6 995,8 100 0,40 37 #14/99
Low5,8 5,8 6,0   6,0 993,5 100 -  
Daily Tabular details for Thursday Sep 24 2020
Time Temp. ( °C ) Dew pt. ( °C ) Wind ( km/h ) from Gust ( km/h ) Pressure ( hPa ) Humid.( % ) Rainrate ( cm ) Solar ( W/m2 )
00:04 7,8 7,8 19,0 SW 19,0 997,1 100 - -
00:09 7,8 7,8 15,0 SW 19,0 997,1 100 - -
00:14 7,7 7,7 19,0 SW 15,0 997,1 100 - -
00:19 7,6 7,6 19,0 SW 19,0 997,0 100 - -
00:24 7,6 7,6 15,0 SW 15,0 997,0 100 - -
00:29 7,4 7,4 16,0 SW 15,0 997,1 100 - -
00:34 7,4 7,4 13,0 SW 16,0 997,1 100 - -
00:39 7,3 7,3 15,0 SW 13,0 997,1 100 0,20 -
00:44 7,2 7,2 15,0 SW 15,0 997,1 100 0,20 -
00:49 7,1 7,1 17,0 SW 15,0 997,2 100 0,20 -
00:54 7,1 7,1 13,0 SW 16,0 997,2 100 0,20 -
00:59 7,0 7,0 10,0 SW 11,0 997,4 100 0,20 -
01:04 6,9 6,9 13,0 SSW 10,0 997,4 100 0,20 -
01:09 6,8 6,8 13,0 SSW 13,0 997,5 100 0,20 -
01:14 6,8 6,8 13,0 SSW 13,0 997,5 100 0,20 -
01:19 6,7 6,7 15,0 SSW 13,0 997,5 100 0,20 -
01:24 6,6 6,6 19,0 SSW 15,0 997,4 100 0,20 -
01:29 6,6 6,6 16,0 SW 19,0 997,3 100 0,20 -
01:34 6,6 6,6 16,0 SW 8,0 997,3 100 0,20 -
01:39 6,5 6,5 13,0 SW 16,0 997,2 100 0,20 -
01:44 6,4 6,4 15,0 SW 13,0 997,2 100 0,20 -
01:49 6,4 6,4 13,0 SW 15,0 997,3 100 0,20 -
01:54 6,3 6,3 13,0 SW 13,0 997,3 100 0,20 -
01:59 6,3 6,3 13,0 SW 13,0 997,2 100 - -
02:04 6,3 6,3 18,0 SSW 13,0 997,3 100 - -
02:09 6,3 6,3 16,0 SSW 18,0 997,3 100 - -
02:14 6,2 6,2 17,0 SW 16,0 997,2 100 - -
02:19 6,2 6,2 13,0 SSW 8,0 997,2 100 - -
02:24 6,1 6,1 16,0 SW 13,0 997,1 100 - -
02:29 6,1 6,1 17,0 SW 10,0 997,1 100 - -
02:34 6,0 6,0 15,0 SSW 8,0 997,1 100 - -
02:39 5,9 5,9 13,0 SW 13,0 997,0 100 - -
02:44 5,9 5,9 13,0 SW 13,0 997,1 100 - -
02:49 5,9 5,9 13,0 SSW 13,0 997,2 100 - -
02:54 5,8 5,8 13,0 South 13,0 997,1 100 - -
02:59 5,8 5,8 15,0 SSW 10,0 997,1 100 - -
03:04 5,8 5,8 18,0 South 15,0 997,1 100 - -
03:09 5,8 5,8 19,0 South 18,0 997,2 100 - -
03:14 5,9 5,9 17,0 South 19,0 997,2 100 - -
03:19 6,0 6,0 17,0 SSW 10,0 997,1 100 - -
03:24 6,0 6,0 21,0 South 15,0 997,1 100 - -
03:29 6,1 6,1 19,0 SSW 10,0 997,1 100 - -
03:34 6,1 6,1 17,0 South 16,0 997,0 100 - -
03:39 6,2 6,2 15,0 South 16,0 996,8 100 - -
03:44 6,2 6,2 16,0 SSW 15,0 996,8 100 - -
03:49 6,2 6,2 11,0 South 16,0 996,7 100 - -
03:54 6,2 6,2 13,0 South 7,0 996,6 100 - -
03:59 6,2 6,2 13,0 South 13,0 996,6 100 - -
04:04 6,2 6,2 11,0 South 13,0 996,6 100 - -
04:09 6,1 6,1 11,0 South 11,0 996,4 100 - -
04:14 6,1 6,1 13,0 South 11,0 996,3 100 - -
04:19 6,1 6,1 11,0 South 13,0 996,3 100 - -
04:24 6,1 6,1 11,0 South 11,0 996,3 100 - -
04:29 6,1 6,1 15,0 South 11,0 996,3 100 - -
04:34 6,0 6,0 11,0 South 15,0 996,2 100 - -
04:39 6,0 6,0 15,0 South 11,0 996,0 100 - -
04:44 6,0 6,0 13,0 South 6,0 995,8 100 - -
04:49 6,0 6,0 11,0 South 13,0 995,8 100 - -
04:54 6,0 6,0 10,0 South 11,0 995,8 100 - -
04:59 6,0 6,0 13,0 South 10,0 995,7 100 - -
05:04 6,0 6,0 6,0 South 13,0 995,7 100 - -
05:09 6,0 6,0 10,0 South 6,0 995,7 100 - -
05:14 6,1 6,1 9,0 South 10,0 995,5 100 - -
05:19 6,1 6,1 10,0 SSE 10,0 995,4 100 - -
05:24 6,1 6,1 11,0 SSE 10,0 995,3 100 - -
05:29 6,2 6,2 13,0 South 11,0 995,3 100 - -
05:34 6,3 6,3 13,0 SSE 13,0 995,3 100 - -
05:39 6,4 6,4 11,0 SSE 13,0 994,9 100 - -
05:44 6,5 6,5 15,0 South 11,0 994,9 100 - -
05:49 6,5 6,5 15,0 South 15,0 994,8 100 - -
05:54 6,6 6,6 17,0 South 15,0 994,7 100 - -
05:59 6,7 6,7 15,0 SSE 7,0 994,6 100 - -
06:04 6,8 6,8 15,0 SSE 15,0 994,4 100 - -
06:09 7,0 7,0 13,0 SSE 15,0 994,3 100 - -
06:14 7,1 7,1 13,0 SSE 13,0 994,2 100 - -
06:19 7,2 7,2 13,0 South 13,0 994,1 100 - -
06:24 7,3 7,3 13,0 SSE 13,0 994,0 100 - -
06:29 7,3 7,3 15,0 SSE 10,0 994,0 100 - -
06:34 7,3 7,3 15,0 South 15,0 993,9 100 - -
06:39 7,4 7,4 16,0 SSE 15,0 993,9 100 - -
06:44 7,4 7,4 13,0 SSE 16,0 993,7 100 0,20 -
06:49 7,4 7,4 15,0 SSE 13,0 993,7 100 0,20 -
06:54 7,4 7,4 10,0 South 15,0 993,6 100 0,20 -
06:59 7,4 7,4 11,0 SSE 10,0 993,6 100 0,20 -
07:04 7,4 7,4 11,0 South 11,0 993,6 100 0,20 -
07:09 7,4 7,4 16,0 South 11,0 993,5 100 0,20 5
07:14 7,5 7,5 17,0 SSE 16,0 993,5 100 0,20 9
07:19 7,5 7,5 13,0 SSE 16,0 993,5 100 0,20 11
07:24 7,4 7,4 16,0 South 13,0 993,5 100 0,20 26
07:29 7,4 7,4 17,0 South 16,0 993,5 100 0,20 26
07:34 7,5 7,5 15,0 South 16,0 993,5 100 0,20 19
07:39 7,6 7,6 21,0 South 13,0 993,6 100 0,20 39
07:44 7,6 7,6 20,0 South 21,0 993,6 100 0,20 28
07:49 7,7 7,7 24,0 South 19,0 993,6 100 0,20 46
07:54 7,9 7,9 24,0 South 24,0 993,6 100 0,20 72
07:59 8,0 8,0 24,0 South 19,0 993,6 100 0,20 79
08:04 8,1 8,1 10,0 SSW 24,0 993,6 100 - 49
08:09 8,2 8,2 18,0 SSW 10,0 993,6 100 - 53
08:14 8,3 8,3 17,0 SSW 18,0 993,5 100 - 60

Download your copy of this data-set  here

Our weather-data as stored at Weather Underground. Script developed by Jim McMurry. Adapted for the template by Leuven-Template.eu

You find our weather info also at:

UK Metoffice

WeatherCloud

Weather Underground

United Kingdom Weather Network

AWEKAS

Citizen Weather Observer Program (CWOP)

HAMweather, WeatherForYou, PWS Weather

Equipment we use:

Weather-station
Davis VP2

Weather-program
Weather Display

Provider

Davis VP2

Weather Display